Time;durP1;ratioP1;P1;durP2;ratioP2;P2;SDS_P1;SDS_P2;PMS_P1;PMS_P2;Temp;Humidity;BMP_temperature;BMP_pressure;BME280_temperature;BME280_humidity;BME280_pressure;Samples;Min_cycle;Max_cycle;Signal;HPM_P1;HPM_P2
2023/10/25 00:01:42;;;;;;;;;;;;;;;;;;5028488;28;19932;-76
2023/10/25 00:04:09;;;;;;;;;;;;;;;;;;5014334;28;19928;-75
2023/10/25 00:06:35;;;;;;;;;;;;;;;;;;5008748;28;19921;-77
2023/10/25 00:09:02;;;;;;;;;;;;;;;;;;5019060;28;19956;-76
2023/10/25 00:11:29;;;;;;;;;;;;;;;;;;5009197;28;20387;-76
2023/10/25 00:13:55;;;;;;;;;;;;;;;;;;5008245;28;19940;-73
2023/10/25 00:16:22;;;;;;;;;;;;;;;;;;5007806;28;19921;-76
2023/10/25 00:18:49;;;;;;;;;;;;;;;;;;5019681;28;19921;-74
2023/10/25 00:21:15;;;;;;;;;;;;;;;;;;5010211;28;19925;-76
2023/10/25 00:23:42;;;;;;;;;;;;;;;;;;5007351;28;19921;-76
2023/10/25 00:26:10;;;;;;;;;;;;;;;;;;5006169;28;19971;-76
2023/10/25 00:28:37;;;;;;;;;;;;;;;;;;5006208;28;19999;-76
2023/10/25 00:31:03;;;;;;;;;;;;;;;;;;5004949;28;19925;-76
2023/10/25 00:33:30;;;;;;;;;;;;;;;;;;5013729;28;19921;-76
2023/10/25 00:35:56;;;;;;;;;;;;;;;;;;5036696;28;20318;-76
2023/10/25 00:38:23;;;;;;;;;;;;;;;;;;5032464;28;21726;-76
2023/10/25 00:40:49;;;;;;;;;;;;;;;;;;5032859;28;19948;-75
2023/10/25 00:43:16;;;;;;;;;;;;;;;;;;5041370;28;20380;-75
2023/10/25 00:45:42;;;;;;;;;;;;;;;;;;5026707;28;19925;-76
2023/10/25 00:48:09;;;;;;;;;;;;;;;;;;5025839;28;19967;-76
2023/10/25 00:50:36;;;;;;;;;;;;;;;;;;5047847;28;19998;-76
2023/10/25 00:53:02;;;;;;;;;;;;;;;;;;5025198;28;19925;-76
2023/10/25 00:55:29;;;;;;;;;;;;;;;;;;5026476;28;19959;-76
2023/10/25 00:57:56;;;;;;;;;;;;;;;;;;5033544;28;20276;-75
2023/10/25 01:00:25;;;;;;;;;;;;;;;;;;5027585;28;19921;-75
2023/10/25 01:02:51;;;;;;;;;;;;;;;;;;5026296;28;19974;-77
2023/10/25 01:05:18;;;;;;;;;;;;;;;;;;5024133;28;19939;-75
2023/10/25 01:07:44;;;;;;;;;;;;;;;;;;5034041;28;20150;-76
2023/10/25 01:10:11;;;;;;;;;;;;;;;;;;5025967;28;19932;-76
2023/10/25 01:12:39;;;;;;;;;;;;;;;;;;5039991;28;20303;-76
2023/10/25 01:15:06;;;;;;;;;;;;;;;;;;5027069;28;19921;-75
2023/10/25 01:17:32;;;;;;;;;;;;;;;;;;5025411;28;20610;-75
2023/10/25 01:19:59;;;;;;;;;;;;;;;;;;5026356;28;20333;-75
2023/10/25 01:22:26;;;;;;;;;;;;;;;;;;5040166;28;20280;-75
2023/10/25 01:24:52;;;;;;;;;;;;;;;;;;5037468;28;19920;-76
2023/10/25 01:27:19;;;;;;;;;;;;;;;;;;5036301;28;20303;-75
2023/10/25 01:29:46;;;;;;;;;;;;;;;;;;5022960;28;20475;-76
2023/10/25 01:32:12;;;;;;;;;;;;;;;;;;5023299;28;20662;-75
2023/10/25 01:34:39;;;;;;;;;;;;;;;;;;5028867;28;19927;-76
2023/10/25 01:37:06;;;;;;;;;;;;;;;;;;5029375;28;19970;-77
2023/10/25 01:39:33;;;;;;;;;;;;;;;;;;5030083;28;19921;-76
2023/10/25 01:41:59;;;;;;;;;;;;;;;;;;5045830;28;20639;-76
2023/10/25 01:44:26;;;;;;;;;;;;;;;;;;5042700;28;20053;-76
2023/10/25 01:46:53;;;;;;;;;;;;;;;;;;5028066;28;19921;-76
2023/10/25 01:49:20;;;;;;;;;;;;;;;;;;5036223;28;20392;-74
2023/10/25 01:51:46;;;;;;;;;;;;;;;;;;5032090;28;20386;-76
2023/10/25 01:54:13;;;;;;;;;;;;;;;;;;5033123;28;20383;-75
2023/10/25 01:56:39;;;;;;;;;;;;;;;;;;5029086;28;20276;-77
2023/10/25 01:59:06;;;;;;;;;;;;;;;;;;5037254;28;19927;-77
2023/10/25 02:01:32;;;;;;;;;;;;;;;;;;5020795;28;20719;-76
2023/10/25 02:03:59;;;;;;;;;;;;;;;;;;5033152;28;19928;-76
2023/10/25 02:06:27;;;;;;;;;;;;;;;;;;5028811;28;20124;-76
2023/10/25 02:08:54;;;;;;;;;;;;;;;;;;5031416;28;19947;-77
2023/10/25 02:11:20;;;;;;;;;;;;;;;;;;5028921;28;19925;-77
2023/10/25 02:13:47;;;;;;;;;;;;;;;;;;5010645;28;19921;-76
2023/10/25 02:16:14;;;;;;;;;;;;;;;;;;5036833;28;19921;-75
2023/10/25 02:18:40;;;;;;;;;;;;;;;;;;5028866;28;19921;-77
2023/10/25 02:21:07;;;;;;;;;;;;;;;;;;5029088;28;19940;-76
2023/10/25 02:23:34;;;;;;;;;;;;;;;;;;5026705;28;19928;-77
2023/10/25 02:26:00;;;;;;;;;;;;;;;;;;5029285;28;19960;-77
2023/10/25 02:28:27;;;;;;;;;;;;;;;;;;5029270;28;19978;-76
2023/10/25 02:30:53;;;;;;;;;;;;;;;;;;5027766;28;19936;-75
2023/10/25 02:33:20;;;;;;;;;;;;;;;;;;5028652;28;19954;-76
2023/10/25 02:35:48;;;;;;;;;;;;;;;;;;5028506;28;19929;-77
2023/10/25 02:38:15;;;;;;;;;;;;;;;;;;5027858;28;19921;-74
2023/10/25 02:40:41;;;;;;;;;;;;;;;;;;5030471;28;19920;-76
2023/10/25 02:43:08;;;;;;;;;;;;;;;;;;5025598;28;20429;-77
2023/10/25 02:45:35;;;;;;;;;;;;;;;;;;5027765;28;19939;-76
2023/10/25 02:48:01;;;;;;;;;;;;;;;;;;5034258;28;19982;-77
2023/10/25 02:50:29;;;;;;;;;;;;;;;;;;5035260;28;20011;-77
2023/10/25 02:52:58;;;;;;;;;;;;;;;;;;5035568;28;19978;-75
2023/10/25 02:55:24;;;;;;;;;;;;;;;;;;5031602;28;19921;-75
2023/10/25 02:57:51;;;;;;;;;;;;;;;;;;5036402;28;20076;-75
2023/10/25 03:00:17;;;;;;;;;;;;;;;;;;5025001;28;19925;-75
2023/10/25 03:02:44;;;;;;;;;;;;;;;;;;5032457;28;19924;-77
2023/10/25 03:05:10;;;;;;;;;;;;;;;;;;5037984;28;21110;-75
2023/10/25 03:07:37;;;;;;;;;;;;;;;;;;5034895;28;19960;-77
2023/10/25 03:10:03;;;;;;;;;;;;;;;;;;5046958;28;19935;-77
2023/10/25 03:12:32;;;;;;;;;;;;;;;;;;5023761;28;19922;-76
2023/10/25 03:14:59;;;;;;;;;;;;;;;;;;5004427;28;19933;-76
2023/10/25 03:17:25;;;;;;;;;;;;;;;;;;5009234;28;20016;-77
2023/10/25 03:19:52;;;;;;;;;;;;;;;;;;5018352;28;19921;-77
2023/10/25 03:22:18;;;;;;;;;;;;;;;;;;5024740;28;19925;-75
2023/10/25 03:24:45;;;;;;;;;;;;;;;;;;5016416;28;20342;-77
2023/10/25 03:27:12;;;;;;;;;;;;;;;;;;5003950;28;19921;-77
2023/10/25 03:29:39;;;;;;;;;;;;;;;;;;5007494;28;20377;-76
2023/10/25 03:32:06;;;;;;;;;;;;;;;;;;5007215;28;19922;-77
2023/10/25 03:34:32;;;;;;;;;;;;;;;;;;4997055;28;19921;-77
2023/10/25 03:36:59;;;;;;;;;;;;;;;;;;5021867;28;19937;-76
2023/10/25 03:39:26;;;;;;;;;;;;;;;;;;5045007;28;19921;-76
2023/10/25 03:41:53;;;;;;;;;;;;;;;;;;5014566;28;19999;-77
2023/10/25 03:44:19;;;;;;;;;;;;;;;;;;5007152;28;19922;-77
2023/10/25 03:46:47;;;;;;;;;;;;;;;;;;5036959;28;19921;-77
2023/10/25 03:49:13;;;;;;;;;;;;;;;;;;5005521;28;20526;-77
2023/10/25 03:51:40;;;;;;;;;;;;;;;;;;5004597;28;19928;-77
2023/10/25 03:54:07;;;;;;;;;;;;;;;;;;5007479;28;20308;-77
2023/10/25 03:56:33;;;;;;;;;;;;;;;;;;5007298;28;19921;-76
2023/10/25 03:59:00;;;;;;;;;;;;;;;;;;5015355;28;19928;-76
2023/10/25 04:01:26;;;;;;;;;;;;;;;;;;5005901;28;20279;-77
2023/10/25 04:03:53;;;;;;;;;;;;;;;;;;5006924;28;19922;-77
2023/10/25 04:06:20;;;;;;;;;;;;;;;;;;5006104;28;19921;-76
2023/10/25 04:08:46;;;;;;;;;;;;;;;;;;5005351;28;20725;-76
2023/10/25 04:11:13;;;;;;;;;;;;;;;;;;5013372;28;19928;-77
2023/10/25 04:13:43;;;;;;;;;;;;;;;;;;5039548;28;19971;-77
2023/10/25 04:16:10;;;;;;;;;;;;;;;;;;5007470;28;19953;-77
2023/10/25 04:18:37;;;;;;;;;;;;;;;;;;5006381;28;19921;-75
2023/10/25 04:21:03;;;;;;;;;;;;;;;;;;5006371;28;19957;-77
2023/10/25 04:23:30;;;;;;;;;;;;;;;;;;5006371;28;19967;-76
2023/10/25 04:25:56;;;;;;;;;;;;;;;;;;5040631;28;20526;-76
2023/10/25 04:28:23;;;;;;;;;;;;;;;;;;5007651;28;20387;-76
2023/10/25 04:30:49;;;;;;;;;;;;;;;;;;5002646;28;19925;-74
2023/10/25 04:33:16;;;;;;;;;;;;;;;;;;5007397;28;20299;-76
2023/10/25 04:35:43;;;;;;;;;;;;;;;;;;5003097;28;19922;-77
2023/10/25 04:38:10;;;;;;;;;;;;;;;;;;5005218;28;20334;-77
2023/10/25 04:40:36;;;;;;;;;;;;;;;;;;5005617;28;19925;-75
2023/10/25 04:43:03;;;;;;;;;;;;;;;;;;5010059;28;19940;-77
2023/10/25 04:45:29;;;;;;;;;;;;;;;;;;5005772;28;19929;-76
2023/10/25 04:47:56;;;;;;;;;;;;;;;;;;5006533;28;19932;-77
2023/10/25 04:50:22;;;;;;;;;;;;;;;;;;5005686;28;19945;-76
2023/10/25 04:52:49;;;;;;;;;;;;;;;;;;5034636;28;19971;-77
2023/10/25 04:55:16;;;;;;;;;;;;;;;;;;5006395;28;19937;-75
2023/10/25 04:57:42;;;;;;;;;;;;;;;;;;5027475;28;19928;-76
2023/10/25 05:00:12;;;;;;;;;;;;;;;;;;5020858;28;19928;-76
2023/10/25 05:02:38;;;;;;;;;;;;;;;;;;5017307;28;19960;-77
2023/10/25 05:05:05;;;;;;;;;;;;;;;;;;5025592;28;19928;-76
2023/10/25 05:07:32;;;;;;;;;;;;;;;;;;5028393;28;19975;-77
2023/10/25 05:09:58;;;;;;;;;;;;;;;;;;5029422;28;20341;-76
2023/10/25 05:12:25;;;;;;;;;;;;;;;;;;5029406;28;19929;-76
2023/10/25 05:14:51;;;;;;;;;;;;;;;;;;5029381;28;19920;-76
2023/10/25 05:17:18;;;;;;;;;;;;;;;;;;5029066;28;19964;-76
2023/10/25 05:19:44;;;;;;;;;;;;;;;;;;5028630;28;19962;-75
2023/10/25 05:22:14;;;;;;;;;;;;;;;;;;5029859;28;19970;-76
2023/10/25 05:24:40;;;;;;;;;;;;;;;;;;5027609;28;19989;-77
2023/10/25 05:27:07;;;;;;;;;;;;;;;;;;5029938;28;19925;-76
2023/10/25 05:29:33;;;;;;;;;;;;;;;;;;5029210;28;19920;-77
2023/10/25 05:32:00;;;;;;;;;;;;;;;;;;5026147;28;19928;-77
2023/10/25 05:34:26;;;;;;;;;;;;;;;;;;5027950;28;20354;-77
2023/10/25 05:36:53;;;;;;;;;;;;;;;;;;5030908;28;19972;-77
2023/10/25 05:39:19;;;;;;;;;;;;;;;;;;5030568;28;19929;-77
2023/10/25 05:41:46;;;;;;;;;;;;;;;;;;5023814;28;19921;-77
2023/10/25 05:44:12;;;;;;;;;;;;;;;;;;5036850;28;20479;-77
2023/10/25 05:46:39;;;;;;;;;;;;;;;;;;5030838;28;19924;-75
2023/10/25 05:49:05;;;;;;;;;;;;;;;;;;5028346;28;19929;-75
2023/10/25 05:51:32;;;;;;;;;;;;;;;;;;5030092;28;19967;-76
2023/10/25 05:53:58;;;;;;;;;;;;;;;;;;5030641;28;19960;-76
2023/10/25 05:56:28;;;;;;;;;;;;;;;;;;5030709;28;19921;-74
2023/10/25 05:58:55;;;;;;;;;;;;;;;;;;5029881;28;20398;-76
2023/10/25 06:01:21;;;;;;;;;;;;;;;;;;5041553;28;20061;-81
2023/10/25 06:03:48;;;;;;;;;;;;;;;;;;5035366;28;19921;-76
2023/10/25 06:06:15;;;;;;;;;;;;;;;;;;5027923;28;19928;-76
2023/10/25 06:08:41;;;;;;;;;;;;;;;;;;5041141;28;20401;-76
2023/10/25 06:11:08;;;;;;;;;;;;;;;;;;5028037;28;20008;-75
2023/10/25 06:13:34;;;;;;;;;;;;;;;;;;5036164;28;19927;-76
2023/10/25 06:16:01;;;;;;;;;;;;;;;;;;5029641;28;19924;-77
2023/10/25 06:18:28;;;;;;;;;;;;;;;;;;5023431;28;19928;-77
2023/10/25 06:20:54;;;;;;;;;;;;;;;;;;5035237;28;21120;-77
2023/10/25 06:23:20;;;;;;;;;;;;;;;;;;5034993;28;19921;-76
2023/10/25 06:25:47;;;;;;;;;;;;;;;;;;5026561;28;19920;-76
2023/10/25 06:28:13;;;;;;;;;;;;;;;;;;5021351;28;19927;-76
2023/10/25 06:30:40;;;;;;;;;;;;;;;;;;5029425;28;20280;-76
2023/10/25 06:33:07;;;;;;;;;;;;;;;;;;5029057;28;20016;-76
2023/10/25 06:35:34;;;;;;;;;;;;;;;;;;5029127;28;19921;-77
2023/10/25 06:38:01;;;;;;;;;;;;;;;;;;5029258;28;19921;-76
2023/10/25 06:40:27;;;;;;;;;;;;;;;;;;5026918;28;20554;-76
2023/10/25 06:42:54;;;;;;;;;;;;;;;;;;5030501;28;19921;-77
2023/10/25 06:45:21;;;;;;;;;;;;;;;;;;5027210;28;19925;-76
2023/10/25 06:47:47;;;;;;;;;;;;;;;;;;5026178;28;20229;-77
2023/10/25 06:50:14;;;;;;;;;;;;;;;;;;5027439;28;19921;-77
2023/10/25 06:52:40;;;;;;;;;;;;;;;;;;5027122;28;19980;-76
2023/10/25 06:55:07;;;;;;;;;;;;;;;;;;5027988;28;20410;-77
2023/10/25 06:57:35;;;;;;;;;;;;;;;;;;5026736;28;20338;-77
2023/10/25 07:00:03;;;;;;;;;;;;;;;;;;5027226;28;20313;-77
2023/10/25 07:02:30;;;;;;;;;;;;;;;;;;5025395;28;19929;-76
2023/10/25 07:04:56;;;;;;;;;;;;;;;;;;5028967;28;20423;-76
2023/10/25 07:07:25;;;;;;;;;;;;;;;;;;5033886;28;20323;-77
2023/10/25 07:09:52;;;;;;;;;;;;;;;;;;5036029;28;19921;-76
2023/10/25 07:12:20;;;;;;;;;;;;;;;;;;5027286;28;19979;-77
2023/10/25 07:14:46;;;;;;;;;;;;;;;;;;5027731;28;19936;-77
2023/10/25 07:17:13;;;;;;;;;;;;;;;;;;5026912;28;20426;-77
2023/10/25 07:19:43;;;;;;;;;;;;;;;;;;5028817;28;19921;-77
2023/10/25 07:22:09;;;;;;;;;;;;;;;;;;5026147;28;20120;-77
2023/10/25 07:24:38;;;;;;;;;;;;;;;;;;5027726;28;21506;-77
2023/10/25 07:27:05;;;;;;;;;;;;;;;;;;5028519;28;20414;-77
2023/10/25 07:29:32;;;;;;;;;;;;;;;;;;5028266;28;20606;-77
2023/10/25 07:31:58;;;;;;;;;;;;;;;;;;5026422;28;20306;-77
2023/10/25 07:34:25;;;;;;;;;;;;;;;;;;5026416;28;19971;-75
2023/10/25 07:36:51;;;;;;;;;;;;;;;;;;5021009;28;20441;-76
2023/10/25 07:39:18;;;;;;;;;;;;;;;;;;5027560;28;19927;-76
2023/10/25 07:41:44;;;;;;;;;;;;;;;;;;5031662;28;20324;-77
2023/10/25 07:44:11;;;;;;;;;;;;;;;;;;5033343;28;19920;-76
2023/10/25 07:46:37;;;;;;;;;;;;;;;;;;5026384;28;19986;-76
2023/10/25 07:49:04;;;;;;;;;;;;;;;;;;5023660;28;20383;-77
2023/10/25 07:51:30;;;;;;;;;;;;;;;;;;5025655;28;20445;-76
2023/10/25 07:53:57;;;;;;;;;;;;;;;;;;5014055;28;19927;-77
2023/10/25 07:56:24;;;;;;;;;;;;;;;;;;5008048;28;19925;-77
2023/10/25 07:59:10;;;;;;;;;;;;;;;;;;5002833;28;20473;-77
2023/10/25 08:01:38;;;;;;;;;;;;;;;;;;5009371;28;19939;-77
2023/10/25 08:04:04;;;;;;;;;;;;;;;;;;5012760;28;20337;-77
2023/10/25 08:06:31;;;;;;;;;;;;;;;;;;5014858;28;20390;-77
2023/10/25 08:08:57;;;;;;;;;;;;;;;;;;5008738;28;20380;-78
2023/10/25 08:11:24;;;;;;;;;;;;;;;;;;5007260;28;19921;-77
2023/10/25 08:13:51;;;;;;;;;;;;;;;;;;5008495;28;19952;-76
2023/10/25 08:16:17;;;;;;;;;;;;;;;;;;5006945;28;19930;-77
2023/10/25 08:18:44;;;;;;;;;;;;;;;;;;5015881;28;19921;-78
2023/10/25 08:21:10;;;;;;;;;;;;;;;;;;5008344;28;19928;-78
2023/10/25 08:23:38;;;;;;;;;;;;;;;;;;5007172;28;19929;-77
2023/10/25 08:26:04;;;;;;;;;;;;;;;;;;5006134;28;20311;-77
2023/10/25 08:28:31;;;;;;;;;;;;;;;;;;5007707;28;19967;-77
2023/10/25 08:30:57;;;;;;;;;;;;;;;;;;5025945;28;19925;-78
2023/10/25 08:33:24;;;;;;;;;;;;;;;;;;5010630;28;19921;-77
2023/10/25 08:35:51;;;;;;;;;;;;;;;;;;5007699;28;19926;-78
2023/10/25 08:38:17;;;;;;;;;;;;;;;;;;5013564;28;20407;-77
2023/10/25 08:40:44;;;;;;;;;;;;;;;;;;5006828;28;20402;-77
2023/10/25 08:43:10;;;;;;;;;;;;;;;;;;5009027;28;19949;-78
2023/10/25 08:45:37;;;;;;;;;;;;;;;;;;5011521;28;19937;-77
2023/10/25 08:48:04;;;;;;;;;;;;;;;;;;5010988;28;19978;-75
2023/10/25 08:50:30;;;;;;;;;;;;;;;;;;5010416;28;19921;-76
2023/10/25 08:52:57;;;;;;;;;;;;;;;;;;5012450;28;19922;-75
2023/10/25 08:55:24;;;;;;;;;;;;;;;;;;5011483;28;19975;-76
2023/10/25 08:57:56;;;;;;;;;;;;;;;;;;5010088;28;20379;-76
2023/10/25 09:00:30;;;;;;;;;;;;;;;;;;5010754;28;21634;-75
2023/10/25 09:03:13;;;;;;;;;;;;;;;;;;5018999;28;19991;-76
2023/10/25 09:05:41;;;;;;;;;;;;;;;;;;5013241;28;19921;-75
2023/10/25 09:08:08;;;;;;;;;;;;;;;;;;5007716;28;19925;-75
2023/10/25 09:10:34;;;;;;;;;;;;;;;;;;5012517;28;19935;-75
2023/10/25 09:13:01;;;;;;;;;;;;;;;;;;5010083;28;19921;-76
2023/10/25 09:15:28;;;;;;;;;;;;;;;;;;5009241;28;20662;-75
2023/10/25 09:17:55;;;;;;;;;;;;;;;;;;5011123;28;19941;-76
2023/10/25 09:20:23;;;;;;;;;;;;;;;;;;5012871;28;20590;-75
2023/10/25 09:22:50;;;;;;;;;;;;;;;;;;5010248;28;19925;-75
2023/10/25 09:25:16;;;;;;;;;;;;;;;;;;5011945;28;20355;-75
2023/10/25 09:27:43;;;;;;;;;;;;;;;;;;5028853;28;19973;-75
2023/10/25 09:30:09;;;;;;;;;;;;;;;;;;5009570;28;19922;-75
2023/10/25 09:32:43;;;;;;;;;;;;;;;;;;5009301;28;19928;-75
2023/10/25 09:35:09;;;;;;;;;;;;;;;;;;5009264;28;20407;-75
2023/10/25 09:37:36;;;;;;;;;;;;;;;;;;5009119;28;19948;-75
2023/10/25 09:40:02;;;;;;;;;;;;;;;;;;5012294;28;20081;-76
2023/10/25 09:42:29;;;;;;;;;;;;;;;;;;5012225;28;19943;-78
2023/10/25 09:44:55;;;;;;;;;;;;;;;;;;5011809;28;19928;-77
2023/10/25 09:47:22;;;;;;;;;;;;;;;;;;5010830;28;21922;-78
2023/10/25 09:49:48;;;;;;;;;;;;;;;;;;5014091;28;20036;-78
2023/10/25 09:52:15;;;;;;;;;;;;;;;;;;5014850;28;19948;-78
2023/10/25 09:54:41;;;;;;;;;;;;;;;;;;5012003;28;20513;-78
2023/10/25 09:57:11;;;;;;;;;;;;;;;;;;5046930;28;19928;-78
2023/10/25 09:59:38;;;;;;;;;;;;;;;;;;5014318;28;19929;-78
2023/10/25 10:02:04;;;;;;;;;;;;;;;;;;5019343;28;19932;-78
2023/10/25 10:04:32;;;;;;;;;;;;;;;;;;5018350;28;20346;-78
2023/10/25 10:06:59;;;;;;;;;;;;;;;;;;5013008;28;20295;-78
2023/10/25 10:09:25;;;;;;;;;;;;;;;;;;5017281;28;20383;-78
2023/10/25 10:11:52;;;;;;;;;;;;;;;;;;5012166;28;20383;-78
2023/10/25 10:14:18;;;;;;;;;;;;;;;;;;5015506;28;19928;-78
2023/10/25 10:16:45;;;;;;;;;;;;;;;;;;5016807;28;19966;-78
2023/10/25 10:19:11;;;;;;;;;;;;;;;;;;5015739;28;19921;-78
2023/10/25 10:21:38;;;;;;;;;;;;;;;;;;4995275;28;19960;-78
2023/10/25 10:24:04;;;;;;;;;;;;;;;;;;5027926;28;19928;-77
2023/10/25 10:26:31;;;;;;;;;;;;;;;;;;5025303;28;19947;-77
2023/10/25 10:29:00;;;;;;;;;;;;;;;;;;5014906;28;19944;-77
2023/10/25 10:31:29;;;;;;;;;;;;;;;;;;5010886;28;19921;-78
2023/10/25 10:33:56;;;;;;;;;;;;;;;;;;5011953;28;20618;-78
2023/10/25 10:36:23;;;;;;;;;;;;;;;;;;5013919;28;19921;-78
2023/10/25 10:38:50;;;;;;;;;;;;;;;;;;5012336;28;19921;-78
2023/10/25 10:41:16;;;;;;;;;;;;;;;;;;5021326;28;19921;-79
2023/10/25 10:43:43;;;;;;;;;;;;;;;;;;5013673;28;19992;-78
2023/10/25 10:46:09;;;;;;;;;;;;;;;;;;5012922;28;19931;-79
2023/10/25 10:48:36;;;;;;;;;;;;;;;;;;5024031;28;19943;-78
2023/10/25 10:51:03;;;;;;;;;;;;;;;;;;5025229;28;20090;-77
2023/10/25 10:53:30;;;;;;;;;;;;;;;;;;5017082;28;19921;-78
2023/10/25 10:55:56;;;;;;;;;;;;;;;;;;5014599;28;19976;-77
2023/10/25 10:58:25;;;;;;;;;;;;;;;;;;5015444;28;19922;-78
2023/10/25 11:00:51;;;;;;;;;;;;;;;;;;5036183;28;19929;-78
2023/10/25 11:03:19;;;;;;;;;;;;;;;;;;5020529;28;19948;-78
2023/10/25 11:05:46;;;;;;;;;;;;;;;;;;5012789;28;19921;-78
2023/10/25 11:08:13;;;;;;;;;;;;;;;;;;5010335;28;19921;-78
2023/10/25 11:10:41;;;;;;;;;;;;;;;;;;5015636;28;19925;-79
2023/10/25 11:13:07;;;;;;;;;;;;;;;;;;5017619;28;19921;-78
2023/10/25 11:15:34;;;;;;;;;;;;;;;;;;4993187;28;19922;-77
2023/10/25 11:18:01;;;;;;;;;;;;;;;;;;5022095;28;19957;-78
2023/10/25 11:20:27;;;;;;;;;;;;;;;;;;5013605;28;19921;-77
2023/10/25 11:22:54;;;;;;;;;;;;;;;;;;5009763;28;19928;-77
2023/10/25 11:25:21;;;;;;;;;;;;;;;;;;5011269;28;19925;-77
2023/10/25 11:27:48;;;;;;;;;;;;;;;;;;5011971;28;19944;-77
2023/10/25 11:30:15;;;;;;;;;;;;;;;;;;5012736;28;19922;-77
2023/10/25 11:32:42;;;;;;;;;;;;;;;;;;5011821;28;19921;-77
2023/10/25 11:35:08;;;;;;;;;;;;;;;;;;5014259;28;20438;-77
2023/10/25 11:37:35;;;;;;;;;;;;;;;;;;5015272;28;20008;-79
2023/10/25 11:40:02;;;;;;;;;;;;;;;;;;5016968;28;19985;-79
2023/10/25 11:42:29;;;;;;;;;;;;;;;;;;5013199;28;20273;-77
2023/10/25 11:44:56;;;;;;;;;;;;;;;;;;5008143;28;19925;-77
2023/10/25 11:47:23;;;;;;;;;;;;;;;;;;5016336;28;19925;-77
2023/10/25 11:49:50;;;;;;;;;;;;;;;;;;5016811;28;19929;-82
2023/10/25 11:52:16;;;;;;;;;;;;;;;;;;5017731;28;20064;-80
2023/10/25 11:54:43;;;;;;;;;;;;;;;;;;5012861;28;19967;-77
2023/10/25 11:57:10;;;;;;;;;;;;;;;;;;5030373;28;19922;-80
2023/10/25 11:59:36;;;;;;;;;;;;;;;;;;5020936;28;19944;-79
2023/10/25 12:02:03;;;;;;;;;;;;;;;;;;5018050;28;19922;-79
2023/10/25 12:04:29;;;;;;;;;;;;;;;;;;5017716;28;19956;-78
2023/10/25 12:06:56;;;;;;;;;;;;;;;;;;5008877;28;20397;-79
2023/10/25 12:09:23;;;;;;;;;;;;;;;;;;5017223;28;20024;-78
2023/10/25 12:11:49;;;;;;;;;;;;;;;;;;5020263;28;19921;-81
2023/10/25 12:14:16;;;;;;;;;;;;;;;;;;5012301;28;20300;-80
2023/10/25 12:16:58;;;;;;;;;;;;;;;;;;5015940;28;20697;-81
2023/10/25 12:19:25;;;;;;;;;;;;;;;;;;5014448;28;19922;-84
2023/10/25 12:21:55;;;;;;;;;;;;;;;;;;5016167;28;20035;-78
2023/10/25 12:24:22;;;;;;;;;;;;;;;;;;5022416;28;19925;-78
2023/10/25 12:26:49;;;;;;;;;;;;;;;;;;5021749;28;20012;-80
2023/10/25 12:29:16;;;;;;;;;;;;;;;;;;5026011;28;19939;-82
2023/10/25 12:31:42;;;;;;;;;;;;;;;;;;5026187;28;19981;-80
2023/10/25 12:34:09;;;;;;;;;;;;;;;;;;5020563;28;19928;-81
2023/10/25 12:36:35;;;;;;;;;;;;;;;;;;5030891;28;19945;-80
2023/10/25 12:39:02;;;;;;;;;;;;;;;;;;5022368;28;19921;-80
2023/10/25 12:41:28;;;;;;;;;;;;;;;;;;5043557;28;19945;-81
2023/10/25 12:43:56;;;;;;;;;;;;;;;;;;5012975;28;19921;-81
2023/10/25 12:46:22;;;;;;;;;;;;;;;;;;5008631;28;19925;-79
2023/10/25 12:48:49;;;;;;;;;;;;;;;;;;5012465;28;19933;-80
2023/10/25 12:51:16;;;;;;;;;;;;;;;;;;5012273;28;19921;-81
2023/10/25 12:53:42;;;;;;;;;;;;;;;;;;5022354;28;19925;-80
2023/10/25 12:56:09;;;;;;;;;;;;;;;;;;5022133;28;20389;-80
2023/10/25 12:58:35;;;;;;;;;;;;;;;;;;5020789;28;20000;-80
2023/10/25 13:01:02;;;;;;;;;;;;;;;;;;5021011;28;19929;-79
2023/10/25 13:03:29;;;;;;;;;;;;;;;;;;5018581;28;19921;-80
2023/10/25 13:05:55;;;;;;;;;;;;;;;;;;5017931;28;19929;-80
2023/10/25 13:08:22;;;;;;;;;;;;;;;;;;4997366;28;19948;-78
2023/10/25 13:10:49;;;;;;;;;;;;;;;;;;5019257;28;19968;-78
2023/10/25 13:13:15;;;;;;;;;;;;;;;;;;5016091;28;19958;-79
2023/10/25 13:15:42;;;;;;;;;;;;;;;;;;5015437;28;19975;-80
2023/10/25 13:18:08;;;;;;;;;;;;;;;;;;5021843;28;19928;-82
2023/10/25 13:20:35;;;;;;;;;;;;;;;;;;5016856;28;19921;-82
2023/10/25 13:23:02;;;;;;;;;;;;;;;;;;5019934;28;19925;-81
2023/10/25 13:25:29;;;;;;;;;;;;;;;;;;5021597;28;19943;-80
2023/10/25 13:27:56;;;;;;;;;;;;;;;;;;5022552;28;19978;-81
2023/10/25 13:30:22;;;;;;;;;;;;;;;;;;5025085;28;19986;-81
2023/10/25 13:32:49;;;;;;;;;;;;;;;;;;5025321;28;19984;-81
2023/10/25 13:35:16;;;;;;;;;;;;;;;;;;5004204;28;19969;-81
2023/10/25 13:37:42;;;;;;;;;;;;;;;;;;5024052;28;19921;-81
2023/10/25 13:40:09;;;;;;;;;;;;;;;;;;5016111;28;19922;-79
2023/10/25 13:42:36;;;;;;;;;;;;;;;;;;4985822;28;20323;-79
2023/10/25 13:45:03;;;;;;;;;;;;;;;;;;5014317;28;20014;-81
2023/10/25 13:47:29;;;;;;;;;;;;;;;;;;5016236;28;19945;-80
2023/10/25 13:49:56;;;;;;;;;;;;;;;;;;5035626;28;20319;-80
2023/10/25 13:52:23;;;;;;;;;;;;;;;;;;5034218;28;20441;-81
2023/10/25 13:54:49;;;;;;;;;;;;;;;;;;5024353;28;19964;-81
2023/10/25 13:57:16;;;;;;;;;;;;;;;;;;5018756;28;19944;-80
2023/10/25 13:59:42;;;;;;;;;;;;;;;;;;5026515;28;20008;-78
2023/10/25 14:02:09;;;;;;;;;;;;;;;;;;5026986;28;19927;-79
2023/10/25 14:04:36;;;;;;;;;;;;;;;;;;5013235;28;19921;-81
2023/10/25 14:07:03;;;;;;;;;;;;;;;;;;5033458;28;19972;-77
2023/10/25 14:09:30;;;;;;;;;;;;;;;;;;5020208;28;19932;-80
2023/10/25 14:11:58;;;;;;;;;;;;;;;;;;5039544;28;20016;-80
2023/10/25 14:14:25;;;;;;;;;;;;;;;;;;5024530;28;19921;-77
2023/10/25 14:16:51;;;;;;;;;;;;;;;;;;5044956;28;19933;-77
2023/10/25 14:19:20;;;;;;;;;;;;;;;;;;5024502;28;20020;-78
2023/10/25 14:21:46;;;;;;;;;;;;;;;;;;5021227;28;19925;-80
2023/10/25 14:24:13;;;;;;;;;;;;;;;;;;5021078;28;19932;-79
2023/10/25 14:26:41;;;;;;;;;;;;;;;;;;5048213;28;19925;-79
2023/10/25 14:29:08;;;;;;;;;;;;;;;;;;5015408;28;20382;-79
2023/10/25 14:31:34;;;;;;;;;;;;;;;;;;5014502;28;20016;-79
2023/10/25 14:34:01;;;;;;;;;;;;;;;;;;5028296;28;19921;-80
2023/10/25 14:36:30;;;;;;;;;;;;;;;;;;5016988;28;20310;-80
2023/10/25 14:38:57;;;;;;;;;;;;;;;;;;5026177;28;19921;-79
2023/10/25 14:41:23;;;;;;;;;;;;;;;;;;5035512;28;19970;-79
2023/10/25 14:43:50;;;;;;;;;;;;;;;;;;5040112;28;19952;-80
2023/10/25 14:46:18;;;;;;;;;;;;;;;;;;5038987;28;19978;-78
2023/10/25 14:48:45;;;;;;;;;;;;;;;;;;5033376;28;19928;-79
2023/10/25 14:51:12;;;;;;;;;;;;;;;;;;5036993;28;19921;-80
2023/10/25 14:53:38;;;;;;;;;;;;;;;;;;5037934;28;19921;-81
2023/10/25 14:56:05;;;;;;;;;;;;;;;;;;5035392;28;19974;-81
2023/10/25 14:58:31;;;;;;;;;;;;;;;;;;5034665;28;19925;-81
2023/10/25 15:01:00;;;;;;;;;;;;;;;;;;5028426;28;19920;-80
2023/10/25 15:03:27;;;;;;;;;;;;;;;;;;5031964;28;20383;-79
2023/10/25 15:05:53;;;;;;;;;;;;;;;;;;5034436;28;19936;-81
2023/10/25 15:08:20;;;;;;;;;;;;;;;;;;5033083;28;19951;-80
2023/10/25 15:10:46;;;;;;;;;;;;;;;;;;5029965;28;19921;-81
2023/10/25 15:13:13;;;;;;;;;;;;;;;;;;5033878;28;19931;-81
2023/10/25 15:15:39;;;;;;;;;;;;;;;;;;5033613;28;19935;-80
2023/10/25 15:18:06;;;;;;;;;;;;;;;;;;5031936;28;19974;-82
2023/10/25 15:20:33;;;;;;;;;;;;;;;;;;5034833;28;19921;-81
2023/10/25 15:22:59;;;;;;;;;;;;;;;;;;5035005;28;19921;-79
2023/10/25 15:25:26;;;;;;;;;;;;;;;;;;5027384;28;20467;-80
2023/10/25 15:27:52;;;;;;;;;;;;;;;;;;5032821;28;19929;-79
2023/10/25 15:30:19;;;;;;;;;;;;;;;;;;5032917;28;19957;-79
2023/10/25 15:32:45;;;;;;;;;;;;;;;;;;5031767;28;19925;-79
2023/10/25 15:35:12;;;;;;;;;;;;;;;;;;5018416;28;19991;-80
2023/10/25 15:37:39;;;;;;;;;;;;;;;;;;5014033;28;20508;-78
2023/10/25 15:40:05;;;;;;;;;;;;;;;;;;5012287;28;19921;-78
2023/10/25 15:42:42;;;;;;;;;;;;;;;;;;5006297;28;19922;-79
2023/10/25 15:45:12;;;;;;;;;;;;;;;;;;5040686;28;20461;-79
2023/10/25 15:47:39;;;;;;;;;;;;;;;;;;5014110;28;19937;-78
2023/10/25 15:50:06;;;;;;;;;;;;;;;;;;5014813;28;19927;-79
2023/10/25 15:52:32;;;;;;;;;;;;;;;;;;5020714;28;19944;-76
2023/10/25 15:54:59;;;;;;;;;;;;;;;;;;5015439;28;20526;-79
2023/10/25 15:57:26;;;;;;;;;;;;;;;;;;5012383;28;19967;-79
2023/10/25 15:59:53;;;;;;;;;;;;;;;;;;5013153;28;20320;-78
2023/10/25 16:02:19;;;;;;;;;;;;;;;;;;5011519;28;19921;-80
2023/10/25 16:04:46;;;;;;;;;;;;;;;;;;5007964;28;20413;-80
2023/10/25 16:07:13;;;;;;;;;;;;;;;;;;5032841;28;19921;-80
2023/10/25 16:09:40;;;;;;;;;;;;;;;;;;5008316;28;19930;-79
2023/10/25 16:12:07;;;;;;;;;;;;;;;;;;5020146;28;19921;-81
2023/10/25 16:14:33;;;;;;;;;;;;;;;;;;5028952;28;19921;-78
2023/10/25 16:17:00;;;;;;;;;;;;;;;;;;5039178;28;20410;-80
2023/10/25 16:19:27;;;;;;;;;;;;;;;;;;5029799;28;19989;-81
2023/10/25 16:21:53;;;;;;;;;;;;;;;;;;5029617;28;19928;-81
2023/10/25 16:24:20;;;;;;;;;;;;;;;;;;5032127;28;19921;-78
2023/10/25 16:26:47;;;;;;;;;;;;;;;;;;5031674;28;19924;-80
2023/10/25 16:29:13;;;;;;;;;;;;;;;;;;5029380;28;19952;-79
2023/10/25 16:31:40;;;;;;;;;;;;;;;;;;5030414;28;19951;-78
2023/10/25 16:34:06;;;;;;;;;;;;;;;;;;5032112;28;20004;-79
2023/10/25 16:36:33;;;;;;;;;;;;;;;;;;5026007;28;20531;-79
2023/10/25 16:39:00;;;;;;;;;;;;;;;;;;5024121;28;20423;-80
2023/10/25 16:41:27;;;;;;;;;;;;;;;;;;5029069;28;19932;-77
2023/10/25 16:43:53;;;;;;;;;;;;;;;;;;5029700;28;19965;-79